aviador You're here:

VQPR Decoded Metar

PARO in BHUTAN
Report Time2018-01-22 01:30:00
UTC Time2018-01-22 02:05:59
Flight Rules vfr VFR
WindCalm
Visibility9999 m
Phenomena:N/A
Clouds:N/A
Expected CloudBase > 800 ft AGL from Temp-Dew spread
CeilingNone
Temp-3°C
Dew Point-5°C (86% RH)
AAT-5.6°C
QNH1021 hPa
Raw Report
METAR VQPR 220130Z 00000KT 9999 SKC M03/M05 Q1021=

Extra information for VQPR:More info

Metar Taf Metar & Taf Last 4 Metars F.Rules Stats Wind Profile Meteogram Temp Stats Airport Information Weather charts Add Link Nearby VenuesMetar ALERT Operation Metar Decoded Social comments